sensor_id;sensor_type;location;lat;lon;timestamp;P1;durP1;ratioP1;P2;durP2;ratioP2
10041;SDS011;5061;49.068;12.058;2022-12-10T00:00:19;21.40;;;11.50;;
10041;SDS011;5061;49.068;12.058;2022-12-10T00:03:40;21.10;;;11.50;;
10041;SDS011;5061;49.068;12.058;2022-12-10T00:07:01;22.30;;;12.57;;
10041;SDS011;5061;49.068;12.058;2022-12-10T00:10:21;21.00;;;12.03;;
10041;SDS011;5061;49.068;12.058;2022-12-10T00:13:43;25.50;;;13.77;;
10041;SDS011;5061;49.068;12.058;2022-12-10T00:17:04;22.70;;;12.20;;
10041;SDS011;5061;49.068;12.058;2022-12-10T00:20:25;31.27;;;15.17;;
10041;SDS011;5061;49.068;12.058;2022-12-10T00:23:45;30.10;;;15.30;;
10041;SDS011;5061;49.068;12.058;2022-12-10T00:27:06;28.70;;;14.07;;
10041;SDS011;5061;49.068;12.058;2022-12-10T00:30:27;27.23;;;14.73;;
10041;SDS011;5061;49.068;12.058;2022-12-10T00:33:48;24.27;;;14.40;;
10041;SDS011;5061;49.068;12.058;2022-12-10T00:37:09;24.43;;;14.33;;
10041;SDS011;5061;49.068;12.058;2022-12-10T00:40:30;29.27;;;14.40;;
10041;SDS011;5061;49.068;12.058;2022-12-10T00:43:52;26.47;;;13.90;;
10041;SDS011;5061;49.068;12.058;2022-12-10T00:47:13;27.23;;;14.13;;
10041;SDS011;5061;49.068;12.058;2022-12-10T00:50:33;23.20;;;12.40;;
10041;SDS011;5061;49.068;12.058;2022-12-10T00:53:54;20.73;;;12.80;;
10041;SDS011;5061;49.068;12.058;2022-12-10T00:57:16;23.20;;;12.27;;
10041;SDS011;5061;49.068;12.058;2022-12-10T01:00:37;24.67;;;12.73;;
10041;SDS011;5061;49.068;12.058;2022-12-10T01:03:58;31.20;;;15.30;;
10041;SDS011;5061;49.068;12.058;2022-12-10T01:07:24;28.13;;;13.53;;
10041;SDS011;5061;49.068;12.058;2022-12-10T01:10:45;28.60;;;13.10;;
10041;SDS011;5061;49.068;12.058;2022-12-10T01:14:13;20.83;;;11.40;;
10041;SDS011;5061;49.068;12.058;2022-12-10T01:17:41;20.30;;;10.90;;
10041;SDS011;5061;49.068;12.058;2022-12-10T01:21:02;18.67;;;10.53;;
10041;SDS011;5061;49.068;12.058;2022-12-10T01:24:25;24.83;;;11.17;;
10041;SDS011;5061;49.068;12.058;2022-12-10T01:27:47;18.20;;;9.70;;
10041;SDS011;5061;49.068;12.058;2022-12-10T01:31:09;20.00;;;10.40;;
10041;SDS011;5061;49.068;12.058;2022-12-10T01:34:37;23.50;;;12.67;;
10041;SDS011;5061;49.068;12.058;2022-12-10T01:37:58;21.03;;;11.10;;
10041;SDS011;5061;49.068;12.058;2022-12-10T01:41:23;27.43;;;14.00;;
10041;SDS011;5061;49.068;12.058;2022-12-10T01:48:09;32.60;;;15.57;;
10041;SDS011;5061;49.068;12.058;2022-12-10T01:51:31;31.33;;;15.23;;
10041;SDS011;5061;49.068;12.058;2022-12-10T01:54:54;23.80;;;12.70;;
10041;SDS011;5061;49.068;12.058;2022-12-10T01:58:15;27.97;;;12.70;;
10041;SDS011;5061;49.068;12.058;2022-12-10T02:01:46;27.27;;;12.80;;
10041;SDS011;5061;49.068;12.058;2022-12-10T02:05:32;23.47;;;11.93;;
10041;SDS011;5061;49.068;12.058;2022-12-10T02:09:09;22.73;;;11.70;;
10041;SDS011;5061;49.068;12.058;2022-12-10T02:16:47;27.83;;;13.43;;
10041;SDS011;5061;49.068;12.058;2022-12-10T02:23:53;19.60;;;10.30;;
10041;SDS011;5061;49.068;12.058;2022-12-10T02:27:42;17.20;;;9.40;;
10041;SDS011;5061;49.068;12.058;2022-12-10T02:31:10;21.20;;;10.77;;
10041;SDS011;5061;49.068;12.058;2022-12-10T02:34:35;16.43;;;8.90;;
10041;SDS011;5061;49.068;12.058;2022-12-10T02:38:09;23.70;;;11.83;;
10041;SDS011;5061;49.068;12.058;2022-12-10T02:41:34;27.07;;;13.40;;
10041;SDS011;5061;49.068;12.058;2022-12-10T02:44:58;23.87;;;12.50;;
10041;SDS011;5061;49.068;12.058;2022-12-10T02:48:20;30.73;;;14.00;;
10041;SDS011;5061;49.068;12.058;2022-12-10T02:51:41;35.13;;;15.80;;
10041;SDS011;5061;49.068;12.058;2022-12-10T02:55:02;29.63;;;14.60;;
10041;SDS011;5061;49.068;12.058;2022-12-10T03:09:37;28.03;;;14.70;;
10041;SDS011;5061;49.068;12.058;2022-12-10T03:13:06;27.20;;;13.40;;
10041;SDS011;5061;49.068;12.058;2022-12-10T03:16:32;29.57;;;14.40;;
10041;SDS011;5061;49.068;12.058;2022-12-10T03:19:56;31.30;;;14.80;;
10041;SDS011;5061;49.068;12.058;2022-12-10T03:23:19;26.40;;;14.40;;
10041;SDS011;5061;49.068;12.058;2022-12-10T03:26:40;29.57;;;14.00;;
10041;SDS011;5061;49.068;12.058;2022-12-10T03:30:03;24.00;;;13.20;;
10041;SDS011;5061;49.068;12.058;2022-12-10T03:33:24;24.97;;;12.83;;
10041;SDS011;5061;49.068;12.058;2022-12-10T03:36:45;20.57;;;10.83;;
10041;SDS011;5061;49.068;12.058;2022-12-10T03:40:07;31.00;;;14.37;;
10041;SDS011;5061;49.068;12.058;2022-12-10T03:43:30;29.53;;;14.67;;
10041;SDS011;5061;49.068;12.058;2022-12-10T03:46:51;26.50;;;12.50;;
10041;SDS011;5061;49.068;12.058;2022-12-10T03:50:11;22.20;;;11.40;;
10041;SDS011;5061;49.068;12.058;2022-12-10T03:53:32;27.67;;;13.23;;
10041;SDS011;5061;49.068;12.058;2022-12-10T03:56:53;27.10;;;13.07;;
10041;SDS011;5061;49.068;12.058;2022-12-10T04:00:13;36.70;;;14.60;;
10041;SDS011;5061;49.068;12.058;2022-12-10T04:03:35;34.77;;;17.67;;
10041;SDS011;5061;49.068;12.058;2022-12-10T04:06:57;30.00;;;15.57;;
10041;SDS011;5061;49.068;12.058;2022-12-10T04:10:18;32.23;;;16.07;;
10041;SDS011;5061;49.068;12.058;2022-12-10T04:13:39;40.17;;;17.87;;
10041;SDS011;5061;49.068;12.058;2022-12-10T04:17:19;31.27;;;16.37;;
10041;SDS011;5061;49.068;12.058;2022-12-10T04:20:39;35.10;;;17.73;;
10041;SDS011;5061;49.068;12.058;2022-12-10T04:24:19;43.73;;;18.10;;
10041;SDS011;5061;49.068;12.058;2022-12-10T04:28:00;31.03;;;16.23;;
10041;SDS011;5061;49.068;12.058;2022-12-10T04:31:21;32.13;;;16.83;;
10041;SDS011;5061;49.068;12.058;2022-12-10T04:34:41;35.17;;;17.07;;
10041;SDS011;5061;49.068;12.058;2022-12-10T04:38:02;30.13;;;15.07;;
10041;SDS011;5061;49.068;12.058;2022-12-10T04:41:22;29.87;;;15.67;;
10041;SDS011;5061;49.068;12.058;2022-12-10T04:44:43;38.63;;;18.13;;
10041;SDS011;5061;49.068;12.058;2022-12-10T04:48:04;30.97;;;16.47;;
10041;SDS011;5061;49.068;12.058;2022-12-10T04:51:24;37.93;;;17.87;;
10041;SDS011;5061;49.068;12.058;2022-12-10T04:54:45;32.87;;;15.67;;
10041;SDS011;5061;49.068;12.058;2022-12-10T04:58:06;33.83;;;14.83;;
10041;SDS011;5061;49.068;12.058;2022-12-10T05:01:26;33.47;;;16.93;;
10041;SDS011;5061;49.068;12.058;2022-12-10T05:04:48;36.53;;;16.60;;
10041;SDS011;5061;49.068;12.058;2022-12-10T05:08:09;37.17;;;18.17;;
10041;SDS011;5061;49.068;12.058;2022-12-10T05:11:30;42.30;;;19.10;;
10041;SDS011;5061;49.068;12.058;2022-12-10T05:14:51;34.47;;;17.30;;
10041;SDS011;5061;49.068;12.058;2022-12-10T05:18:12;49.67;;;20.43;;
10041;SDS011;5061;49.068;12.058;2022-12-10T05:21:35;40.53;;;18.47;;
10041;SDS011;5061;49.068;12.058;2022-12-10T05:25:14;41.80;;;18.60;;
10041;SDS011;5061;49.068;12.058;2022-12-10T05:28:39;35.47;;;18.07;;
10041;SDS011;5061;49.068;12.058;2022-12-10T05:32:05;38.27;;;18.47;;
10041;SDS011;5061;49.068;12.058;2022-12-10T05:35:25;32.90;;;16.50;;
10041;SDS011;5061;49.068;12.058;2022-12-10T05:38:46;36.53;;;17.20;;
10041;SDS011;5061;49.068;12.058;2022-12-10T05:42:07;39.10;;;16.67;;
10041;SDS011;5061;49.068;12.058;2022-12-10T05:45:27;37.20;;;17.80;;
10041;SDS011;5061;49.068;12.058;2022-12-10T05:48:48;36.43;;;16.77;;
10041;SDS011;5061;49.068;12.058;2022-12-10T05:52:10;35.20;;;16.40;;
10041;SDS011;5061;49.068;12.058;2022-12-10T05:55:30;39.57;;;17.60;;
10041;SDS011;5061;49.068;12.058;2022-12-10T05:58:55;36.63;;;18.43;;
10041;SDS011;5061;49.068;12.058;2022-12-10T06:02:18;33.80;;;16.90;;
10041;SDS011;5061;49.068;12.058;2022-12-10T06:05:39;39.63;;;18.43;;
10041;SDS011;5061;49.068;12.058;2022-12-10T06:09:00;36.00;;;18.13;;
10041;SDS011;5061;49.068;12.058;2022-12-10T06:12:21;39.33;;;18.63;;
10041;SDS011;5061;49.068;12.058;2022-12-10T06:15:42;41.93;;;19.10;;
10041;SDS011;5061;49.068;12.058;2022-12-10T06:19:03;31.20;;;17.27;;
10041;SDS011;5061;49.068;12.058;2022-12-10T06:22:23;28.50;;;14.80;;
10041;SDS011;5061;49.068;12.058;2022-12-10T06:25:44;41.03;;;18.47;;
10041;SDS011;5061;49.068;12.058;2022-12-10T06:29:04;42.30;;;20.63;;
10041;SDS011;5061;49.068;12.058;2022-12-10T06:32:26;37.37;;;18.00;;
10041;SDS011;5061;49.068;12.058;2022-12-10T06:35:46;38.07;;;18.00;;
10041;SDS011;5061;49.068;12.058;2022-12-10T06:39:07;39.80;;;18.77;;
10041;SDS011;5061;49.068;12.058;2022-12-10T06:42:28;34.77;;;16.67;;
10041;SDS011;5061;49.068;12.058;2022-12-10T06:45:48;39.30;;;18.30;;
10041;SDS011;5061;49.068;12.058;2022-12-10T06:49:09;44.10;;;19.17;;
10041;SDS011;5061;49.068;12.058;2022-12-10T06:52:30;44.40;;;20.97;;
10041;SDS011;5061;49.068;12.058;2022-12-10T06:55:50;43.73;;;20.47;;
10041;SDS011;5061;49.068;12.058;2022-12-10T06:59:11;51.27;;;21.33;;
10041;SDS011;5061;49.068;12.058;2022-12-10T07:02:31;38.77;;;19.17;;
10041;SDS011;5061;49.068;12.058;2022-12-10T07:05:52;48.27;;;22.40;;
10041;SDS011;5061;49.068;12.058;2022-12-10T07:09:16;44.13;;;21.63;;
10041;SDS011;5061;49.068;12.058;2022-12-10T07:12:36;48.90;;;22.13;;
10041;SDS011;5061;49.068;12.058;2022-12-10T07:15:57;45.43;;;22.10;;
10041;SDS011;5061;49.068;12.058;2022-12-10T07:19:18;45.73;;;20.60;;
10041;SDS011;5061;49.068;12.058;2022-12-10T07:22:38;44.93;;;20.30;;
10041;SDS011;5061;49.068;12.058;2022-12-10T07:25:59;43.27;;;19.67;;
10041;SDS011;5061;49.068;12.058;2022-12-10T07:29:20;38.40;;;17.90;;
10041;SDS011;5061;49.068;12.058;2022-12-10T07:32:41;37.63;;;17.97;;
10041;SDS011;5061;49.068;12.058;2022-12-10T07:36:05;36.90;;;16.97;;
10041;SDS011;5061;49.068;12.058;2022-12-10T07:39:27;32.40;;;16.07;;
10041;SDS011;5061;49.068;12.058;2022-12-10T07:42:47;27.37;;;14.13;;
10041;SDS011;5061;49.068;12.058;2022-12-10T07:46:09;33.77;;;16.13;;
10041;SDS011;5061;49.068;12.058;2022-12-10T07:49:32;44.83;;;20.30;;
10041;SDS011;5061;49.068;12.058;2022-12-10T07:52:53;46.03;;;21.40;;
10041;SDS011;5061;49.068;12.058;2022-12-10T07:56:13;45.87;;;21.37;;
10041;SDS011;5061;49.068;12.058;2022-12-10T07:59:34;41.27;;;19.80;;
10041;SDS011;5061;49.068;12.058;2022-12-10T08:02:54;42.33;;;18.57;;
10041;SDS011;5061;49.068;12.058;2022-12-10T08:06:18;49.93;;;21.93;;
10041;SDS011;5061;49.068;12.058;2022-12-10T08:09:40;40.40;;;19.00;;
10041;SDS011;5061;49.068;12.058;2022-12-10T08:13:01;43.70;;;19.77;;
10041;SDS011;5061;49.068;12.058;2022-12-10T08:16:23;45.77;;;20.00;;
10041;SDS011;5061;49.068;12.058;2022-12-10T08:19:45;39.10;;;18.40;;
10041;SDS011;5061;49.068;12.058;2022-12-10T08:23:06;37.23;;;19.20;;
10041;SDS011;5061;49.068;12.058;2022-12-10T08:26:28;38.57;;;19.37;;
10041;SDS011;5061;49.068;12.058;2022-12-10T08:29:50;42.73;;;19.10;;
10041;SDS011;5061;49.068;12.058;2022-12-10T08:33:11;44.90;;;20.57;;
10041;SDS011;5061;49.068;12.058;2022-12-10T08:36:32;39.10;;;18.17;;
10041;SDS011;5061;49.068;12.058;2022-12-10T08:39:55;37.53;;;18.27;;
10041;SDS011;5061;49.068;12.058;2022-12-10T08:43:15;40.77;;;19.00;;
10041;SDS011;5061;49.068;12.058;2022-12-10T08:46:36;41.60;;;20.00;;
10041;SDS011;5061;49.068;12.058;2022-12-10T08:49:57;45.87;;;20.20;;
10041;SDS011;5061;49.068;12.058;2022-12-10T08:53:18;48.73;;;22.43;;
10041;SDS011;5061;49.068;12.058;2022-12-10T08:56:39;39.53;;;19.43;;
10041;SDS011;5061;49.068;12.058;2022-12-10T08:59:59;33.00;;;16.80;;
10041;SDS011;5061;49.068;12.058;2022-12-10T09:03:20;41.00;;;19.10;;
10041;SDS011;5061;49.068;12.058;2022-12-10T09:06:41;38.30;;;18.80;;
10041;SDS011;5061;49.068;12.058;2022-12-10T09:10:01;33.47;;;17.27;;
10041;SDS011;5061;49.068;12.058;2022-12-10T09:13:23;35.57;;;18.23;;
10041;SDS011;5061;49.068;12.058;2022-12-10T09:16:43;41.80;;;19.60;;
10041;SDS011;5061;49.068;12.058;2022-12-10T09:20:04;40.53;;;18.50;;
10041;SDS011;5061;49.068;12.058;2022-12-10T09:23:25;37.03;;;17.13;;
10041;SDS011;5061;49.068;12.058;2022-12-10T09:26:46;33.77;;;17.70;;
10041;SDS011;5061;49.068;12.058;2022-12-10T09:30:07;31.53;;;14.90;;
10041;SDS011;5061;49.068;12.058;2022-12-10T09:33:28;34.13;;;16.77;;
10041;SDS011;5061;49.068;12.058;2022-12-10T09:36:49;33.17;;;16.43;;
10041;SDS011;5061;49.068;12.058;2022-12-10T09:40:14;40.53;;;18.10;;
10041;SDS011;5061;49.068;12.058;2022-12-10T09:47:20;36.40;;;17.73;;
10041;SDS011;5061;49.068;12.058;2022-12-10T09:54:30;31.47;;;15.50;;
10041;SDS011;5061;49.068;12.058;2022-12-10T09:57:57;31.67;;;16.40;;
10041;SDS011;5061;49.068;12.058;2022-12-10T10:01:19;29.87;;;14.40;;
10041;SDS011;5061;49.068;12.058;2022-12-10T10:04:45;28.50;;;14.90;;
10041;SDS011;5061;49.068;12.058;2022-12-10T10:08:07;27.90;;;14.30;;
10041;SDS011;5061;49.068;12.058;2022-12-10T10:11:51;34.43;;;17.10;;
10041;SDS011;5061;49.068;12.058;2022-12-10T10:15:13;33.13;;;15.53;;
10041;SDS011;5061;49.068;12.058;2022-12-10T10:18:38;26.33;;;14.03;;
10041;SDS011;5061;49.068;12.058;2022-12-10T10:22:03;35.73;;;16.30;;
10041;SDS011;5061;49.068;12.058;2022-12-10T10:25:24;41.77;;;18.90;;
10041;SDS011;5061;49.068;12.058;2022-12-10T10:28:45;36.23;;;17.53;;
10041;SDS011;5061;49.068;12.058;2022-12-10T10:32:23;33.93;;;16.90;;
10041;SDS011;5061;49.068;12.058;2022-12-10T10:35:49;31.63;;;16.07;;
10041;SDS011;5061;49.068;12.058;2022-12-10T10:42:40;33.70;;;16.93;;
10041;SDS011;5061;49.068;12.058;2022-12-10T10:49:33;24.07;;;12.73;;
10041;SDS011;5061;49.068;12.058;2022-12-10T10:52:57;35.20;;;15.97;;
10041;SDS011;5061;49.068;12.058;2022-12-10T10:56:32;27.23;;;13.33;;
10041;SDS011;5061;49.068;12.058;2022-12-10T11:00:03;29.10;;;14.30;;
10041;SDS011;5061;49.068;12.058;2022-12-10T11:03:44;31.47;;;14.37;;
10041;SDS011;5061;49.068;12.058;2022-12-10T11:07:12;40.73;;;17.63;;
10041;SDS011;5061;49.068;12.058;2022-12-10T11:10:46;38.83;;;19.80;;
10041;SDS011;5061;49.068;12.058;2022-12-10T11:14:25;40.90;;;18.80;;
10041;SDS011;5061;49.068;12.058;2022-12-10T11:17:52;34.60;;;17.70;;
10041;SDS011;5061;49.068;12.058;2022-12-10T11:21:18;29.30;;;15.60;;
10041;SDS011;5061;49.068;12.058;2022-12-10T11:24:41;36.03;;;16.93;;
10041;SDS011;5061;49.068;12.058;2022-12-10T11:36:05;24.20;;;13.93;;
10041;SDS011;5061;49.068;12.058;2022-12-10T11:39:50;38.97;;;17.87;;
10041;SDS011;5061;49.068;12.058;2022-12-10T11:50:34;29.33;;;15.03;;
10041;SDS011;5061;49.068;12.058;2022-12-10T12:08:37;36.93;;;19.23;;
10041;SDS011;5061;49.068;12.058;2022-12-10T12:15:50;32.60;;;16.40;;
10041;SDS011;5061;49.068;12.058;2022-12-10T12:19:18;26.03;;;14.27;;
10041;SDS011;5061;49.068;12.058;2022-12-10T12:22:51;24.90;;;14.03;;
10041;SDS011;5061;49.068;12.058;2022-12-10T12:26:30;30.13;;;15.27;;
10041;SDS011;5061;49.068;12.058;2022-12-10T12:30:05;28.67;;;14.07;;
10041;SDS011;5061;49.068;12.058;2022-12-10T12:33:32;27.47;;;14.00;;
10041;SDS011;5061;49.068;12.058;2022-12-10T12:36:54;25.70;;;13.03;;
10041;SDS011;5061;49.068;12.058;2022-12-10T12:40:36;31.07;;;15.20;;
10041;SDS011;5061;49.068;12.058;2022-12-10T12:44:04;35.93;;;17.90;;
10041;SDS011;5061;49.068;12.058;2022-12-10T12:47:43;28.10;;;15.07;;
10041;SDS011;5061;49.068;12.058;2022-12-10T12:51:05;30.67;;;16.33;;
10041;SDS011;5061;49.068;12.058;2022-12-10T12:54:28;29.10;;;15.43;;
10041;SDS011;5061;49.068;12.058;2022-12-10T12:58:00;32.30;;;16.83;;
10041;SDS011;5061;49.068;12.058;2022-12-10T13:04:58;28.67;;;14.80;;
10041;SDS011;5061;49.068;12.058;2022-12-10T13:12:28;29.73;;;14.80;;
10041;SDS011;5061;49.068;12.058;2022-12-10T13:15:35;28.03;;;14.47;;
10041;SDS011;5061;49.068;12.058;2022-12-10T13:22:41;27.60;;;14.97;;
10041;SDS011;5061;49.068;12.058;2022-12-10T13:26:26;28.47;;;14.87;;
10041;SDS011;5061;49.068;12.058;2022-12-10T13:33:14;31.83;;;15.50;;
10041;SDS011;5061;49.068;12.058;2022-12-10T13:50:38;27.07;;;14.10;;
10041;SDS011;5061;49.068;12.058;2022-12-10T14:08:28;36.50;;;16.50;;
10041;SDS011;5061;49.068;12.058;2022-12-10T14:15:18;29.70;;;15.27;;
10041;SDS011;5061;49.068;12.058;2022-12-10T14:18:42;34.13;;;16.40;;
10041;SDS011;5061;49.068;12.058;2022-12-10T14:22:06;30.90;;;15.57;;
10041;SDS011;5061;49.068;12.058;2022-12-10T14:25:27;30.37;;;15.90;;
10041;SDS011;5061;49.068;12.058;2022-12-10T14:32:16;30.23;;;16.33;;
10041;SDS011;5061;49.068;12.058;2022-12-10T14:35:39;33.43;;;17.13;;
10041;SDS011;5061;49.068;12.058;2022-12-10T14:39:00;31.23;;;16.67;;
10041;SDS011;5061;49.068;12.058;2022-12-10T14:42:22;37.17;;;19.90;;
10041;SDS011;5061;49.068;12.058;2022-12-10T14:45:47;32.67;;;17.47;;
10041;SDS011;5061;49.068;12.058;2022-12-10T14:49:19;29.17;;;15.97;;
10041;SDS011;5061;49.068;12.058;2022-12-10T14:52:42;36.70;;;16.37;;
10041;SDS011;5061;49.068;12.058;2022-12-10T14:56:14;31.47;;;18.20;;
10041;SDS011;5061;49.068;12.058;2022-12-10T15:03:18;36.90;;;17.33;;
10041;SDS011;5061;49.068;12.058;2022-12-10T15:06:50;31.00;;;15.87;;
10041;SDS011;5061;49.068;12.058;2022-12-10T15:10:17;30.70;;;15.23;;
10041;SDS011;5061;49.068;12.058;2022-12-10T15:13:41;27.70;;;15.43;;
10041;SDS011;5061;49.068;12.058;2022-12-10T15:17:04;30.70;;;16.13;;
10041;SDS011;5061;49.068;12.058;2022-12-10T15:20:46;33.07;;;16.70;;
10041;SDS011;5061;49.068;12.058;2022-12-10T15:27:37;37.70;;;17.37;;
10041;SDS011;5061;49.068;12.058;2022-12-10T15:31:09;32.83;;;17.70;;
10041;SDS011;5061;49.068;12.058;2022-12-10T15:34:49;31.60;;;17.40;;
10041;SDS011;5061;49.068;12.058;2022-12-10T15:38:14;31.23;;;16.17;;
10041;SDS011;5061;49.068;12.058;2022-12-10T15:41:49;34.73;;;17.23;;
10041;SDS011;5061;49.068;12.058;2022-12-10T15:48:40;35.13;;;16.57;;
10041;SDS011;5061;49.068;12.058;2022-12-10T15:52:02;38.30;;;18.93;;
10041;SDS011;5061;49.068;12.058;2022-12-10T15:55:23;35.20;;;18.30;;
10041;SDS011;5061;49.068;12.058;2022-12-10T15:58:44;37.73;;;17.13;;
10041;SDS011;5061;49.068;12.058;2022-12-10T16:02:10;33.73;;;16.23;;
10041;SDS011;5061;49.068;12.058;2022-12-10T16:05:45;37.23;;;18.33;;
10041;SDS011;5061;49.068;12.058;2022-12-10T16:09:08;36.40;;;17.60;;
10041;SDS011;5061;49.068;12.058;2022-12-10T16:12:29;32.03;;;16.87;;
10041;SDS011;5061;49.068;12.058;2022-12-10T16:15:55;32.70;;;17.80;;
10041;SDS011;5061;49.068;12.058;2022-12-10T16:19:18;39.43;;;19.93;;
10041;SDS011;5061;49.068;12.058;2022-12-10T16:22:39;41.53;;;17.43;;
10041;SDS011;5061;49.068;12.058;2022-12-10T16:25:59;32.37;;;16.37;;
10041;SDS011;5061;49.068;12.058;2022-12-10T16:29:21;36.90;;;18.20;;
10041;SDS011;5061;49.068;12.058;2022-12-10T16:32:41;41.23;;;20.07;;
10041;SDS011;5061;49.068;12.058;2022-12-10T16:36:05;39.03;;;18.37;;
10041;SDS011;5061;49.068;12.058;2022-12-10T16:39:26;36.57;;;17.57;;
10041;SDS011;5061;49.068;12.058;2022-12-10T16:42:46;40.37;;;19.43;;
10041;SDS011;5061;49.068;12.058;2022-12-10T16:46:09;33.40;;;16.93;;
10041;SDS011;5061;49.068;12.058;2022-12-10T16:49:31;41.73;;;18.83;;
10041;SDS011;5061;49.068;12.058;2022-12-10T16:52:52;34.07;;;17.90;;
10041;SDS011;5061;49.068;12.058;2022-12-10T16:56:15;39.37;;;17.53;;
10041;SDS011;5061;49.068;12.058;2022-12-10T16:59:36;29.07;;;16.80;;
10041;SDS011;5061;49.068;12.058;2022-12-10T17:02:56;37.63;;;17.67;;
10041;SDS011;5061;49.068;12.058;2022-12-10T17:06:26;35.90;;;18.43;;
10041;SDS011;5061;49.068;12.058;2022-12-10T17:09:48;35.17;;;19.10;;
10041;SDS011;5061;49.068;12.058;2022-12-10T17:13:13;36.60;;;18.90;;
10041;SDS011;5061;49.068;12.058;2022-12-10T17:16:35;35.07;;;18.30;;
10041;SDS011;5061;49.068;12.058;2022-12-10T17:19:55;41.93;;;19.27;;
10041;SDS011;5061;49.068;12.058;2022-12-10T17:23:16;41.07;;;19.57;;
10041;SDS011;5061;49.068;12.058;2022-12-10T17:26:38;38.97;;;18.63;;
10041;SDS011;5061;49.068;12.058;2022-12-10T17:30:04;36.77;;;19.07;;
10041;SDS011;5061;49.068;12.058;2022-12-10T17:33:26;36.33;;;18.10;;
10041;SDS011;5061;49.068;12.058;2022-12-10T17:36:46;30.97;;;15.90;;
10041;SDS011;5061;49.068;12.058;2022-12-10T17:40:12;34.43;;;17.43;;
10041;SDS011;5061;49.068;12.058;2022-12-10T17:43:35;33.00;;;16.43;;
10041;SDS011;5061;49.068;12.058;2022-12-10T17:46:56;32.50;;;17.07;;
10041;SDS011;5061;49.068;12.058;2022-12-10T17:53:42;36.47;;;17.50;;
10041;SDS011;5061;49.068;12.058;2022-12-10T17:57:02;34.73;;;17.53;;
10041;SDS011;5061;49.068;12.058;2022-12-10T18:00:31;36.60;;;17.57;;
10041;SDS011;5061;49.068;12.058;2022-12-10T18:03:54;41.23;;;20.67;;
10041;SDS011;5061;49.068;12.058;2022-12-10T18:07:16;39.90;;;19.60;;
10041;SDS011;5061;49.068;12.058;2022-12-10T18:10:37;40.27;;;19.13;;
10041;SDS011;5061;49.068;12.058;2022-12-10T18:13:58;37.90;;;19.50;;
10041;SDS011;5061;49.068;12.058;2022-12-10T18:17:19;30.67;;;16.03;;
10041;SDS011;5061;49.068;12.058;2022-12-10T18:20:40;33.50;;;17.17;;
10041;SDS011;5061;49.068;12.058;2022-12-10T18:24:02;44.77;;;19.17;;
10041;SDS011;5061;49.068;12.058;2022-12-10T18:27:23;36.50;;;18.00;;
10041;SDS011;5061;49.068;12.058;2022-12-10T18:30:43;36.10;;;18.37;;
10041;SDS011;5061;49.068;12.058;2022-12-10T18:34:05;33.73;;;16.90;;
10041;SDS011;5061;49.068;12.058;2022-12-10T18:37:27;37.43;;;18.10;;
10041;SDS011;5061;49.068;12.058;2022-12-10T18:40:47;34.80;;;17.97;;
10041;SDS011;5061;49.068;12.058;2022-12-10T18:44:08;32.40;;;15.80;;
10041;SDS011;5061;49.068;12.058;2022-12-10T18:47:29;26.23;;;13.17;;
10041;SDS011;5061;49.068;12.058;2022-12-10T18:50:49;32.97;;;15.03;;
10041;SDS011;5061;49.068;12.058;2022-12-10T18:54:14;27.87;;;14.60;;
10041;SDS011;5061;49.068;12.058;2022-12-10T18:57:34;33.50;;;15.53;;
10041;SDS011;5061;49.068;12.058;2022-12-10T19:00:55;29.93;;;14.70;;
10041;SDS011;5061;49.068;12.058;2022-12-10T19:04:16;30.43;;;14.90;;
10041;SDS011;5061;49.068;12.058;2022-12-10T19:07:36;29.13;;;14.07;;
10041;SDS011;5061;49.068;12.058;2022-12-10T19:10:57;33.90;;;15.93;;
10041;SDS011;5061;49.068;12.058;2022-12-10T19:14:18;28.50;;;13.40;;
10041;SDS011;5061;49.068;12.058;2022-12-10T19:17:40;25.20;;;13.07;;
10041;SDS011;5061;49.068;12.058;2022-12-10T19:21:00;32.37;;;13.53;;
10041;SDS011;5061;49.068;12.058;2022-12-10T19:24:23;26.93;;;11.90;;
10041;SDS011;5061;49.068;12.058;2022-12-10T19:27:43;23.90;;;12.27;;
10041;SDS011;5061;49.068;12.058;2022-12-10T19:31:04;29.07;;;12.43;;
10041;SDS011;5061;49.068;12.058;2022-12-10T19:34:25;28.67;;;15.30;;
10041;SDS011;5061;49.068;12.058;2022-12-10T19:37:47;31.47;;;13.17;;
10041;SDS011;5061;49.068;12.058;2022-12-10T19:41:09;22.70;;;11.23;;
10041;SDS011;5061;49.068;12.058;2022-12-10T19:44:29;20.43;;;11.87;;
10041;SDS011;5061;49.068;12.058;2022-12-10T19:47:51;26.10;;;11.90;;
10041;SDS011;5061;49.068;12.058;2022-12-10T19:51:14;22.00;;;11.00;;
10041;SDS011;5061;49.068;12.058;2022-12-10T19:54:35;25.93;;;12.40;;
10041;SDS011;5061;49.068;12.058;2022-12-10T19:57:55;23.07;;;11.90;;
10041;SDS011;5061;49.068;12.058;2022-12-10T20:01:16;22.00;;;11.17;;
10041;SDS011;5061;49.068;12.058;2022-12-10T20:04:37;22.40;;;11.10;;
10041;SDS011;5061;49.068;12.058;2022-12-10T20:07:57;21.80;;;11.07;;
10041;SDS011;5061;49.068;12.058;2022-12-10T20:11:18;23.47;;;11.87;;
10041;SDS011;5061;49.068;12.058;2022-12-10T20:14:39;24.63;;;12.13;;
10041;SDS011;5061;49.068;12.058;2022-12-10T20:18:00;25.40;;;12.50;;
10041;SDS011;5061;49.068;12.058;2022-12-10T20:21:21;28.13;;;13.90;;
10041;SDS011;5061;49.068;12.058;2022-12-10T20:24:43;31.03;;;14.80;;
10041;SDS011;5061;49.068;12.058;2022-12-10T20:28:04;25.20;;;12.47;;
10041;SDS011;5061;49.068;12.058;2022-12-10T20:31:26;26.93;;;11.40;;
10041;SDS011;5061;49.068;12.058;2022-12-10T20:34:48;25.40;;;13.40;;
10041;SDS011;5061;49.068;12.058;2022-12-10T20:38:12;22.70;;;10.60;;
10041;SDS011;5061;49.068;12.058;2022-12-10T20:41:33;21.40;;;10.77;;
10041;SDS011;5061;49.068;12.058;2022-12-10T20:44:54;21.53;;;11.40;;
10041;SDS011;5061;49.068;12.058;2022-12-10T20:48:14;17.83;;;9.93;;
10041;SDS011;5061;49.068;12.058;2022-12-10T20:51:35;25.23;;;11.10;;
10041;SDS011;5061;49.068;12.058;2022-12-10T20:54:56;18.43;;;9.97;;
10041;SDS011;5061;49.068;12.058;2022-12-10T20:58:16;24.17;;;11.60;;
10041;SDS011;5061;49.068;12.058;2022-12-10T21:01:37;24.90;;;12.97;;
10041;SDS011;5061;49.068;12.058;2022-12-10T21:04:57;27.00;;;12.00;;
10041;SDS011;5061;49.068;12.058;2022-12-10T21:08:18;21.70;;;12.03;;
10041;SDS011;5061;49.068;12.058;2022-12-10T21:11:39;27.37;;;12.47;;
10041;SDS011;5061;49.068;12.058;2022-12-10T21:15:00;21.87;;;10.20;;
10041;SDS011;5061;49.068;12.058;2022-12-10T21:18:21;21.03;;;9.50;;
10041;SDS011;5061;49.068;12.058;2022-12-10T21:21:41;19.40;;;11.37;;
10041;SDS011;5061;49.068;12.058;2022-12-10T21:25:02;28.50;;;12.43;;
10041;SDS011;5061;49.068;12.058;2022-12-10T21:28:23;29.10;;;13.50;;
10041;SDS011;5061;49.068;12.058;2022-12-10T21:31:45;23.53;;;12.30;;
10041;SDS011;5061;49.068;12.058;2022-12-10T21:35:09;24.53;;;12.30;;
10041;SDS011;5061;49.068;12.058;2022-12-10T21:38:29;24.33;;;11.03;;
10041;SDS011;5061;49.068;12.058;2022-12-10T21:41:50;26.00;;;12.30;;
10041;SDS011;5061;49.068;12.058;2022-12-10T21:45:30;23.63;;;12.03;;
10041;SDS011;5061;49.068;12.058;2022-12-10T21:48:51;24.93;;;11.33;;
10041;SDS011;5061;49.068;12.058;2022-12-10T21:52:12;24.70;;;11.60;;
10041;SDS011;5061;49.068;12.058;2022-12-10T21:55:33;26.93;;;12.93;;
10041;SDS011;5061;49.068;12.058;2022-12-10T21:58:55;23.07;;;12.10;;
10041;SDS011;5061;49.068;12.058;2022-12-10T22:02:16;18.60;;;10.47;;